<?xml version="1.0" encoding="utf-8"?>
<gpx xmlns:xsi="http://www.w3.org/2001/XMLSchema-instance" xmlns:xsd="http://www.w3.org/2001/XMLSchema" version="1.1" creator="Shapelink.com" xmlns="http://www.topografix.com/GPX/1/1" xmlns:gpxtpx="http://www.garmin.com/xmlschemas/TrackPointExtension/v1">
  <metadata>
    <name>Övrigt 2.02 km, 2019-05-23</name>
    <desc></desc>
    <author><name>Marian Moron</name></author> 
    <time>2019-05-23T22:23:12Z</time>
  </metadata>
  <trk>
    <name>Övrigt 2.02 km, 2019-05-23</name>
    <trkseg>
      <trkpt lat="50.843009067145" lon="3.350203269043">
        <ele>11.6</ele>
        <time>2019-05-23T22:23:12Z</time>
      </trkpt>
      <trkpt lat="50.842544039333" lon="3.350189690365">
        <ele>7.2</ele>
        <time>2019-05-23T22:23:48Z</time>
      </trkpt>
      <trkpt lat="50.842520067099" lon="3.350196563523">
        <ele>8.6</ele>
        <time>2019-05-23T22:23:52Z</time>
      </trkpt>
      <trkpt lat="50.842173307896" lon="3.350072511403">
        <ele>15.2</ele>
        <time>2019-05-23T22:24:23Z</time>
      </trkpt>
      <trkpt lat="50.841722194038" lon="3.349990536421">
        <ele>15.6</ele>
        <time>2019-05-23T22:25:00Z</time>
      </trkpt>
      <trkpt lat="50.84169520432" lon="3.349980981055">
        <ele>16.4</ele>
        <time>2019-05-23T22:25:03Z</time>
      </trkpt>
      <trkpt lat="50.841249538697" lon="3.349880398255">
        <ele>10.4</ele>
        <time>2019-05-23T22:25:38Z</time>
      </trkpt>
      <trkpt lat="50.840802112875" lon="3.349801859852">
        <ele>8.4</ele>
        <time>2019-05-23T22:26:20Z</time>
      </trkpt>
      <trkpt lat="50.840783672695" lon="3.349794567599">
        <ele>8</ele>
        <time>2019-05-23T22:26:22Z</time>
      </trkpt>
      <trkpt lat="50.840453090559" lon="3.349728769684">
        <ele>2.2</ele>
        <time>2019-05-23T22:26:54Z</time>
      </trkpt>
      <trkpt lat="50.840287128939" lon="3.349732792996">
        <ele>2.4</ele>
        <time>2019-05-23T22:27:02Z</time>
      </trkpt>
      <trkpt lat="50.84019987336" lon="3.349757771058">
        <ele>12.6</ele>
        <time>2019-05-23T22:27:12Z</time>
      </trkpt>
      <trkpt lat="50.839959564287" lon="3.349724327277">
        <ele>14.2</ele>
        <time>2019-05-23T22:27:36Z</time>
      </trkpt>
      <trkpt lat="50.83957542181" lon="3.349673952058">
        <ele>17.8</ele>
        <time>2019-05-23T22:28:11Z</time>
      </trkpt>
      <trkpt lat="50.839350619252" lon="3.349604885202">
        <ele>18</ele>
        <time>2019-05-23T22:28:30Z</time>
      </trkpt>
      <trkpt lat="50.839280295111" lon="3.349558700933">
        <ele>17</ele>
        <time>2019-05-23T22:28:37Z</time>
      </trkpt>
      <trkpt lat="50.838833456022" lon="3.34950363185">
        <ele>12.2</ele>
        <time>2019-05-23T22:29:20Z</time>
      </trkpt>
      <trkpt lat="50.83878165588" lon="3.349534896337">
        <ele>11.6</ele>
        <time>2019-05-23T22:29:25Z</time>
      </trkpt>
      <trkpt lat="50.838404638018" lon="3.349356780962">
        <ele>9.4</ele>
        <time>2019-05-23T22:30:06Z</time>
      </trkpt>
      <trkpt lat="50.838264911745" lon="3.349320487335">
        <ele>13.8</ele>
        <time>2019-05-23T22:30:21Z</time>
      </trkpt>
      <trkpt lat="50.837835004094" lon="3.349242535665">
        <ele>8.6</ele>
        <time>2019-05-23T22:31:02Z</time>
      </trkpt>
      <trkpt lat="50.837378693458" lon="3.34928905521">
        <ele>9.4</ele>
        <time>2019-05-23T22:31:44Z</time>
      </trkpt>
      <trkpt lat="50.836934955672" lon="3.349390560019">
        <ele>8.4</ele>
        <time>2019-05-23T22:32:24Z</time>
      </trkpt>
      <trkpt lat="50.836494067732" lon="3.349461806169">
        <ele>12.2</ele>
        <time>2019-05-23T22:33:03Z</time>
      </trkpt>
      <trkpt lat="50.836420893745" lon="3.349510672646">
        <ele>13.4</ele>
        <time>2019-05-23T22:33:13Z</time>
      </trkpt>
      <trkpt lat="50.836355766382" lon="3.349551995413">
        <ele>13.6</ele>
        <time>2019-05-23T22:33:19Z</time>
      </trkpt>
      <trkpt lat="50.836169101469" lon="3.349703791622">
        <ele>8.6</ele>
        <time>2019-05-23T22:33:39Z</time>
      </trkpt>
      <trkpt lat="50.836145464511" lon="3.349723908182">
        <ele>9</ele>
        <time>2019-05-23T22:33:41Z</time>
      </trkpt>
      <trkpt lat="50.835750257926" lon="3.350069996833">
        <ele>12</ele>
        <time>2019-05-23T22:34:24Z</time>
      </trkpt>
      <trkpt lat="50.8356116213" lon="3.350236461367">
        <ele>12.4</ele>
        <time>2019-05-23T22:34:40Z</time>
      </trkpt>
      <trkpt lat="50.835286822675" lon="3.350732669847">
        <ele>12.6</ele>
        <time>2019-05-23T22:35:23Z</time>
      </trkpt>
      <trkpt lat="50.835094122794" lon="3.351145143146">
        <ele>9.8</ele>
        <time>2019-05-23T22:35:51Z</time>
      </trkpt>
      <trkpt lat="50.835047854706" lon="3.351255197493">
        <ele>10.2</ele>
        <time>2019-05-23T22:35:58Z</time>
      </trkpt>
      <trkpt lat="50.834809892565" lon="3.351878056482">
        <ele>11.2</ele>
        <time>2019-05-23T22:36:39Z</time>
      </trkpt>
      <trkpt lat="50.834715680009" lon="3.3522403222">
        <ele>12.4</ele>
        <time>2019-05-23T22:37:01Z</time>
      </trkpt>
      <trkpt lat="50.834571595148" lon="3.352670648946">
        <ele>10.8</ele>
        <time>2019-05-23T22:37:30Z</time>
      </trkpt>
      <trkpt lat="50.834525913793" lon="3.352781960578">
        <ele>9.6</ele>
        <time>2019-05-23T22:37:39Z</time>
      </trkpt>
      <trkpt lat="50.834455841109" lon="3.353190997298">
        <ele>13.2</ele>
        <time>2019-05-23T22:38:03Z</time>
      </trkpt>
      <trkpt lat="50.83445072815" lon="3.35323106278">
        <ele>12.8</ele>
        <time>2019-05-23T22:38:05Z</time>
      </trkpt>
      <trkpt lat="50.834372608842" lon="3.353460223926">
        <ele>12.8</ele>
        <time>2019-05-23T22:38:19Z</time>
      </trkpt>
      <trkpt lat="50.83434008707" lon="3.353555777586">
        <ele>12.8</ele>
        <time>2019-05-23T22:38:26Z</time>
      </trkpt>
      <trkpt lat="50.834324664374" lon="3.353843025299">
        <ele>11.8</ele>
        <time>2019-05-23T22:38:43Z</time>
      </trkpt>
      <trkpt lat="50.834291723507" lon="3.35387227813">
        <ele>11.4</ele>
        <time>2019-05-23T22:38:47Z</time>
      </trkpt>
      <trkpt lat="50.834254843147" lon="3.353836571236">
        <ele>12.2</ele>
        <time>2019-05-23T22:38:50Z</time>
      </trkpt>
      <trkpt lat="50.834373027937" lon="3.353402472635">
        <ele>11</ele>
        <time>2019-05-23T22:39:19Z</time>
      </trkpt>
      <trkpt lat="50.834388282995" lon="3.353342206774">
        <ele>11</ele>
        <time>2019-05-23T22:39:23Z</time>
      </trkpt>
      <trkpt lat="50.834484842483" lon="3.352925626344">
        <ele>11.4</ele>
        <time>2019-05-23T22:39:53Z</time>
      </trkpt>
      <trkpt lat="50.834511748382" lon="3.352797299455">
        <ele>11.2</ele>
        <time>2019-05-23T22:40:05Z</time>
      </trkpt>
      <trkpt lat="50.834569332035" lon="3.352520529117">
        <ele>9.2</ele>
        <time>2019-05-23T22:40:26Z</time>
      </trkpt>
      <trkpt lat="50.834687349187" lon="3.352216685242">
        <ele>10.8</ele>
        <time>2019-05-23T22:40:50Z</time>
      </trkpt>
      <trkpt lat="50.834715260914" lon="3.352061871549">
        <ele>10</ele>
        <time>2019-05-23T22:41:00Z</time>
      </trkpt>
      <trkpt lat="50.834738646415" lon="3.351932203556">
        <ele>8.8</ele>
        <time>2019-05-23T22:41:09Z</time>
      </trkpt>
      <trkpt lat="50.834847694934" lon="3.351659875625">
        <ele>8.8</ele>
        <time>2019-05-23T22:41:37Z</time>
      </trkpt>
      <trkpt lat="50.834897399601" lon="3.351530291451">
        <ele>9</ele>
        <time>2019-05-23T22:41:48Z</time>
      </trkpt>
      <trkpt lat="50.835065205239" lon="3.351133995219">
        <ele>10.8</ele>
        <time>2019-05-23T22:42:16Z</time>
      </trkpt>
      <trkpt lat="50.835209373919" lon="3.350876251794">
        <ele>10.2</ele>
        <time>2019-05-23T22:42:38Z</time>
      </trkpt>
      <trkpt lat="50.835284894838" lon="3.350728143621">
        <ele>9</ele>
        <time>2019-05-23T22:42:51Z</time>
      </trkpt>
      <trkpt lat="50.835399223954" lon="3.350384904816">
        <ele>7.8</ele>
        <time>2019-05-23T22:43:17Z</time>
      </trkpt>
      <trkpt lat="50.835783534069" lon="3.350011407352">
        <ele>8</ele>
        <time>2019-05-23T22:44:06Z</time>
      </trkpt>
      <trkpt lat="50.835887888724" lon="3.349864807921">
        <ele>7.4</ele>
        <time>2019-05-23T22:44:27Z</time>
      </trkpt>
      <trkpt lat="50.835980341081" lon="3.349881487902">
        <ele>10.6</ele>
        <time>2019-05-23T22:44:39Z</time>
      </trkpt>
      <trkpt lat="50.836149655461" lon="3.349722231802">
        <ele>6.4</ele>
        <time>2019-05-23T22:44:56Z</time>
      </trkpt>
      <trkpt lat="50.836322238782" lon="3.349555767268">
        <ele>10.6</ele>
        <time>2019-05-23T22:45:22Z</time>
      </trkpt>
      <trkpt lat="50.836555507059" lon="3.349395086245">
        <ele>18.2</ele>
        <time>2019-05-23T22:45:53Z</time>
      </trkpt>
      <trkpt lat="50.836787098956" lon="3.349281343862">
        <ele>14.4</ele>
        <time>2019-05-23T22:46:19Z</time>
      </trkpt>
      <trkpt lat="50.836830684836" lon="3.349278494016">
        <ele>13.6</ele>
        <time>2019-05-23T22:46:23Z</time>
      </trkpt>
      <trkpt lat="50.83701810412" lon="3.349242870941">
        <ele>11.8</ele>
        <time>2019-05-23T22:46:40Z</time>
      </trkpt>
      <trkpt lat="50.837461758087" lon="3.349097528795">
        <ele>9.6</ele>
        <time>2019-05-23T22:47:28Z</time>
      </trkpt>
      <trkpt lat="50.837598550695" lon="3.349114041138">
        <ele>15.2</ele>
        <time>2019-05-23T22:47:44Z</time>
      </trkpt>
      <trkpt lat="50.838048574906" lon="3.34910884436">
        <ele>16.6</ele>
        <time>2019-05-23T22:48:23Z</time>
      </trkpt>
      <trkpt lat="50.838498934393" lon="3.34921361811">
        <ele>17.8</ele>
        <time>2019-05-23T22:49:08Z</time>
      </trkpt>
      <trkpt lat="50.838950718803" lon="3.349332305814">
        <ele>15.4</ele>
        <time>2019-05-23T22:49:57Z</time>
      </trkpt>
      <trkpt lat="50.839397641711" lon="3.349382178119">
        <ele>18.8</ele>
        <time>2019-05-23T22:50:37Z</time>
      </trkpt>
      <trkpt lat="50.839843139696" lon="3.349456441753">
        <ele>11.2</ele>
        <time>2019-05-23T22:51:19Z</time>
      </trkpt>
      <trkpt lat="50.839861747514" lon="3.349446048197">
        <ele>11.6</ele>
        <time>2019-05-23T22:51:21Z</time>
      </trkpt>
      <trkpt lat="50.83987465564" lon="3.349416963004">
        <ele>11.6</ele>
        <time>2019-05-23T22:51:23Z</time>
      </trkpt>
      <trkpt lat="50.839782035645" lon="3.349213701929">
        <ele>12.8</ele>
        <time>2019-05-23T22:51:43Z</time>
      </trkpt>
      <trkpt lat="50.839479951969" lon="3.348692180111">
        <ele>10.6</ele>
        <time>2019-05-23T22:52:20Z</time>
      </trkpt>
    </trkseg>
  </trk>
</gpx>